createdAt,value
2023-05-18T00:00:03.175Z,64.30
2023-05-18T00:01:08.655Z,64.17
2023-05-18T00:02:16.859Z,65.86
2023-05-18T00:03:20.733Z,65.91
2023-05-18T00:04:24.741Z,65.85
2023-05-18T00:05:28.137Z,65.53
2023-05-18T00:06:32.086Z,65.40
2023-05-18T00:07:35.743Z,64.81
2023-05-18T00:08:39.132Z,64.56
2023-05-18T00:09:42.655Z,64.53
2023-05-18T00:10:46.096Z,64.93
2023-05-18T00:11:49.433Z,64.95
2023-05-18T00:12:52.596Z,65.34
2023-05-18T00:13:56.286Z,65.49
2023-05-18T00:14:59.508Z,65.47
2023-05-18T00:16:02.631Z,65.39
2023-05-18T00:17:06.453Z,65.21
2023-05-18T00:18:11.395Z,64.94
2023-05-18T00:19:15.548Z,65.32
2023-05-18T00:20:19.187Z,64.95
2023-05-18T00:21:23.034Z,65.50
2023-05-18T00:22:27.312Z,65.08
2023-05-18T00:23:31.302Z,65.90
2023-05-18T00:24:36.870Z,65.20
2023-05-18T00:25:40.541Z,65.46
2023-05-18T00:26:45.359Z,64.99
2023-05-18T00:27:50.954Z,65.67
2023-05-18T00:28:55.590Z,65.12
2023-05-18T00:29:59.248Z,65.57
2023-05-18T00:31:02.809Z,65.06
2023-05-18T00:32:06.424Z,65.23
2023-05-18T00:33:09.921Z,64.94
2023-05-18T00:34:14.416Z,65.33
2023-05-18T00:35:18.756Z,65.26
2023-05-18T00:36:22.342Z,65.05
2023-05-18T00:37:26.361Z,65.08
2023-05-18T00:38:30.166Z,65.57
2023-05-18T00:39:33.726Z,65.19
2023-05-18T00:40:40.651Z,65.18
2023-05-18T00:41:44.441Z,65.36
2023-05-18T00:42:48.145Z,65.40
2023-05-18T00:43:51.889Z,65.14
2023-05-18T00:44:54.892Z,65.87
2023-05-18T00:45:58.529Z,65.50
2023-05-18T00:47:03.029Z,65.61
2023-05-18T00:48:06.740Z,65.27
2023-05-18T00:49:09.803Z,65.43
2023-05-18T00:50:13.161Z,66.14
2023-05-18T00:51:16.730Z,67.47
2023-05-18T00:52:20.144Z,66.92
2023-05-18T00:53:23.593Z,67.15
2023-05-18T00:54:27.539Z,67.08
2023-05-18T00:55:31.019Z,66.68
2023-05-18T00:56:37.516Z,66.94
2023-05-18T00:57:42.969Z,67.20
2023-05-18T00:58:46.956Z,66.88
2023-05-18T00:59:50.218Z,66.47
2023-05-18T01:00:54.406Z,66.45
2023-05-18T01:01:57.491Z,66.12
2023-05-18T01:03:02.881Z,65.66
2023-05-18T01:04:05.993Z,65.66
2023-05-18T01:05:12.104Z,65.84
2023-05-18T01:06:15.868Z,65.59
2023-05-18T01:07:24.066Z,64.99
2023-05-18T01:08:28.371Z,64.92
2023-05-18T01:09:31.693Z,64.43
2023-05-18T01:10:36.311Z,65.29
2023-05-18T01:12:21.069Z,66.61
2023-05-18T01:13:37.045Z,67.43
2023-05-18T01:14:50.451Z,68.85
2023-05-18T01:15:55.770Z,68.11
2023-05-18T01:17:34.437Z,68.72
2023-05-18T01:18:44.502Z,69.81
2023-05-18T01:20:12.279Z,70.64
2023-05-18T01:21:29.445Z,70.68
2023-05-18T01:22:42.174Z,71.51
2023-05-18T01:24:04.304Z,71.29
2023-05-18T01:25:37.189Z,71.74
2023-05-18T01:26:40.789Z,71.54
2023-05-18T01:27:47.673Z,71.25
2023-05-18T01:28:52.222Z,71.19
2023-05-18T01:29:55.501Z,70.87
2023-05-18T01:30:59.942Z,70.78
2023-05-18T01:32:03.328Z,70.96
2023-05-18T01:33:10.804Z,70.63
2023-05-18T01:34:14.342Z,70.36
2023-05-18T01:35:17.982Z,69.78
2023-05-18T01:36:21.604Z,68.12
2023-05-18T01:37:24.824Z,66.74
2023-05-18T01:38:28.800Z,64.91
2023-05-18T01:39:32.410Z,64.28
2023-05-18T01:40:52.360Z,64.69
2023-05-18T01:42:01.799Z,64.97
2023-05-18T01:43:12.237Z,64.09
2023-05-18T01:44:43.038Z,64.14
2023-05-18T01:45:48.154Z,64.54
2023-05-18T01:47:12.091Z,65.17
2023-05-18T01:48:19.039Z,63.98
2023-05-18T01:49:38.717Z,63.00
2023-05-18T01:50:44.469Z,63.24
2023-05-18T01:51:48.606Z,63.02
2023-05-18T01:53:07.158Z,61.71
2023-05-18T01:54:10.659Z,61.21
2023-05-18T01:55:15.419Z,61.21
2023-05-18T01:56:22.087Z,60.94
2023-05-18T01:57:27.053Z,58.82
2023-05-18T01:58:30.240Z,58.28
2023-05-18T01:59:33.553Z,57.10
2023-05-18T02:00:37.392Z,57.28
2023-05-18T02:01:41.693Z,56.78
2023-05-18T02:02:45.568Z,56.19
2023-05-18T02:03:52.466Z,56.04
2023-05-18T02:04:57.735Z,54.31
2023-05-18T02:06:01.392Z,53.35
2023-05-18T02:07:04.625Z,54.03
2023-05-18T02:08:07.658Z,54.31
2023-05-18T02:09:11.156Z,53.89
2023-05-18T02:10:14.846Z,53.32
2023-05-18T02:11:18.603Z,52.68
2023-05-18T02:12:21.955Z,52.29
2023-05-18T02:13:25.052Z,51.72
2023-05-18T02:14:29.036Z,51.23
2023-05-18T02:15:32.730Z,51.22
2023-05-18T02:16:36.613Z,50.50
2023-05-18T02:17:40.474Z,50.71
2023-05-18T02:18:48.161Z,49.90
2023-05-18T02:19:51.473Z,49.12
2023-05-18T02:21:00.896Z,49.52
2023-05-18T02:22:07.947Z,49.67
2023-05-18T02:23:12.142Z,49.47
2023-05-18T02:24:15.797Z,49.51
2023-05-18T02:25:19.724Z,49.00
2023-05-18T02:26:23.586Z,49.27
2023-05-18T02:27:28.747Z,49.08
2023-05-18T02:28:31.994Z,48.95
2023-05-18T02:29:35.596Z,48.78
2023-05-18T02:30:39.441Z,48.49
2023-05-18T02:31:43.132Z,48.71
2023-05-18T02:32:47.842Z,48.63
2023-05-18T02:33:51.684Z,48.05
2023-05-18T02:34:54.778Z,48.60
2023-05-18T02:35:58.505Z,48.57
2023-05-18T02:37:04.809Z,48.45
2023-05-18T02:38:08.289Z,48.46
2023-05-18T02:39:12.025Z,48.27
2023-05-18T02:40:16.465Z,48.67
2023-05-18T02:41:20.483Z,48.62
2023-05-18T02:42:23.612Z,48.46
2023-05-18T02:43:27.021Z,47.96
2023-05-18T02:44:30.782Z,47.80
2023-05-18T02:45:34.293Z,47.71
2023-05-18T02:46:37.656Z,47.69
2023-05-18T02:47:44.614Z,47.30
2023-05-18T02:48:48.945Z,47.44
2023-05-18T02:49:52.238Z,47.15
2023-05-18T02:50:55.750Z,46.71
2023-05-18T02:51:59.245Z,46.51
2023-05-18T02:53:03.083Z,45.96
2023-05-18T02:54:06.882Z,46.34
2023-05-18T02:55:14.615Z,45.88
2023-05-18T02:56:33.350Z,45.54
2023-05-18T02:57:49.001Z,46.08
2023-05-18T02:58:59.546Z,45.88
2023-05-18T03:00:17.699Z,45.81
2023-05-18T03:01:21.871Z,46.11
2023-05-18T03:02:28.991Z,46.06
2023-05-18T03:03:32.777Z,45.56
2023-05-18T03:04:36.418Z,45.41
2023-05-18T03:05:39.978Z,45.44
2023-05-18T03:06:43.987Z,45.52
2023-05-18T03:07:51.348Z,45.17
2023-05-18T03:08:57.314Z,45.32
2023-05-18T03:10:09.883Z,45.18
2023-05-18T03:11:13.915Z,45.03
2023-05-18T03:12:17.279Z,44.84
2023-05-18T03:13:20.370Z,44.97
2023-05-18T03:14:23.802Z,44.52
2023-05-18T03:15:28.041Z,43.47
2023-05-18T03:16:31.472Z,43.89
2023-05-18T03:17:35.351Z,43.43
2023-05-18T03:18:38.569Z,43.41
2023-05-18T03:19:42.481Z,43.24
2023-05-18T03:20:46.141Z,42.80
2023-05-18T03:21:50.318Z,43.31
2023-05-18T03:22:53.599Z,43.23
2023-05-18T03:23:56.698Z,43.23
2023-05-18T03:25:03.606Z,43.38
2023-05-18T03:26:12.200Z,42.89
2023-05-18T03:27:17.025Z,42.91
2023-05-18T03:28:22.070Z,43.05
2023-05-18T03:29:25.969Z,43.05
2023-05-18T03:30:29.762Z,42.77
2023-05-18T03:31:33.000Z,42.78
2023-05-18T03:32:38.239Z,42.63
2023-05-18T03:33:42.175Z,42.66
2023-05-18T03:34:48.511Z,42.74
2023-05-18T03:35:53.186Z,43.07
2023-05-18T03:36:59.073Z,42.59
2023-05-18T03:38:02.872Z,42.96
2023-05-18T03:39:10.708Z,42.54
2023-05-18T03:40:16.541Z,42.79
2023-05-18T03:41:23.183Z,42.71
2023-05-18T03:42:27.736Z,42.43
2023-05-18T03:43:32.945Z,42.79
2023-05-18T03:44:37.590Z,42.75
2023-05-18T03:45:41.229Z,42.45
2023-05-18T03:46:44.660Z,42.72
2023-05-18T03:47:48.779Z,42.85
2023-05-18T03:48:55.148Z,42.73
2023-05-18T03:50:05.981Z,42.85
2023-05-18T03:51:10.724Z,42.77
2023-05-18T03:52:16.480Z,42.85
2023-05-18T03:53:21.959Z,42.82
2023-05-18T03:54:27.130Z,42.28
2023-05-18T03:55:31.118Z,42.76
2023-05-18T03:56:34.630Z,42.67
2023-05-18T03:57:39.334Z,42.78
2023-05-18T03:58:42.906Z,42.40
2023-05-18T03:59:47.249Z,42.75
2023-05-18T04:00:50.913Z,42.29
2023-05-18T04:01:54.414Z,42.57
2023-05-18T04:02:58.534Z,42.06
2023-05-18T04:04:02.395Z,42.29
2023-05-18T04:05:07.202Z,42.48
2023-05-18T04:06:11.915Z,42.72
2023-05-18T04:07:18.601Z,42.33
2023-05-18T04:08:26.118Z,42.68
2023-05-18T04:09:29.905Z,42.41
2023-05-18T04:10:33.098Z,42.66
2023-05-18T04:11:37.120Z,42.50
2023-05-18T04:12:41.478Z,42.09
2023-05-18T04:13:46.020Z,41.89
2023-05-18T04:14:52.168Z,41.85
2023-05-18T04:15:55.621Z,42.04
2023-05-18T04:17:05.128Z,42.29
2023-05-18T04:18:09.168Z,41.79
2023-05-18T04:19:14.075Z,41.96
2023-05-18T04:20:17.844Z,42.06
2023-05-18T04:21:20.803Z,42.09
2023-05-18T04:22:24.148Z,42.12
2023-05-18T04:23:29.102Z,42.16
2023-05-18T04:24:33.608Z,42.26
2023-05-18T04:25:39.700Z,42.38
2023-05-18T04:26:43.626Z,42.15
2023-05-18T04:27:50.502Z,42.23
2023-05-18T04:29:00.923Z,42.44
2023-05-18T04:30:04.422Z,42.44
2023-05-18T04:31:08.002Z,42.24
2023-05-18T04:32:11.465Z,42.31
2023-05-18T04:33:17.337Z,42.12
2023-05-18T04:34:21.831Z,42.43
2023-05-18T04:35:28.572Z,42.30
2023-05-18T04:36:32.261Z,42.33
2023-05-18T04:37:35.543Z,42.46
2023-05-18T04:38:40.318Z,42.57
2023-05-18T04:39:44.535Z,42.42
2023-05-18T04:40:51.329Z,42.42
2023-05-18T04:42:00.659Z,42.56
2023-05-18T04:43:06.228Z,42.30
2023-05-18T04:44:10.596Z,42.74
2023-05-18T04:45:18.356Z,42.59
2023-05-18T04:46:25.132Z,42.38
2023-05-18T04:47:30.969Z,42.57
2023-05-18T04:48:34.634Z,42.37
2023-05-18T04:49:40.332Z,41.96
2023-05-18T04:50:43.966Z,42.37
2023-05-18T04:51:47.511Z,42.00
2023-05-18T04:52:50.918Z,41.94
2023-05-18T04:53:56.253Z,41.64
2023-05-18T04:54:59.365Z,41.52
2023-05-18T04:56:03.340Z,41.79
2023-05-18T04:57:07.120Z,41.71
2023-05-18T04:58:10.844Z,41.32
2023-05-18T04:59:14.639Z,41.46
2023-05-18T05:00:18.486Z,41.69
2023-05-18T05:01:22.054Z,41.64
2023-05-18T05:02:25.192Z,41.62
2023-05-18T05:03:28.513Z,41.55
2023-05-18T05:04:32.327Z,41.26
2023-05-18T05:05:36.158Z,41.46
2023-05-18T05:06:39.681Z,41.29
2023-05-18T05:07:42.890Z,41.26
2023-05-18T05:08:46.837Z,41.35
2023-05-18T05:09:50.322Z,41.34
2023-05-18T05:10:53.989Z,41.07
2023-05-18T05:11:57.562Z,41.14
2023-05-18T05:13:00.794Z,41.17
2023-05-18T05:14:04.678Z,41.12
2023-05-18T05:15:08.394Z,40.87
2023-05-18T05:16:12.314Z,40.62
2023-05-18T05:17:15.995Z,40.78
2023-05-18T05:18:19.475Z,40.71
2023-05-18T05:19:22.870Z,40.91
2023-05-18T05:20:27.555Z,40.82
2023-05-18T05:21:32.374Z,40.92
2023-05-18T05:22:36.044Z,40.78
2023-05-18T05:23:42.282Z,41.03
2023-05-18T05:24:46.863Z,41.31
2023-05-18T05:25:49.888Z,41.64
2023-05-18T05:26:53.671Z,41.67
2023-05-18T05:27:57.091Z,41.97
2023-05-18T05:29:01.058Z,42.05
2023-05-18T05:30:05.845Z,42.03
2023-05-18T05:31:11.994Z,42.52
2023-05-18T05:32:15.101Z,42.35
2023-05-18T05:33:19.627Z,42.22
2023-05-18T05:34:23.406Z,42.15
2023-05-18T05:35:27.093Z,42.15
2023-05-18T05:36:30.666Z,41.92
2023-05-18T05:37:34.087Z,41.88
2023-05-18T05:38:37.738Z,41.71
2023-05-18T05:39:41.829Z,41.52
2023-05-18T05:40:45.157Z,41.21
2023-05-18T05:41:48.434Z,40.73
2023-05-18T05:42:52.272Z,40.54
2023-05-18T05:43:55.823Z,40.39
2023-05-18T05:44:59.239Z,40.38
2023-05-18T05:46:03.684Z,40.39
2023-05-18T05:47:07.541Z,40.25
2023-05-18T05:48:13.493Z,40.45
2023-05-18T05:49:17.511Z,39.79
2023-05-18T05:50:21.412Z,39.55
2023-05-18T05:51:26.670Z,39.71
2023-05-18T05:52:30.321Z,39.72
2023-05-18T05:53:33.831Z,39.04
2023-05-18T05:54:36.881Z,38.74
2023-05-18T05:55:42.447Z,37.92
2023-05-18T05:56:51.462Z,37.23
2023-05-18T05:57:55.172Z,36.88
2023-05-18T05:58:59.047Z,35.85
2023-05-18T06:00:03.366Z,35.35
2023-05-18T06:01:26.307Z,35.18
2023-05-18T06:02:29.830Z,34.28
2023-05-18T06:03:35.807Z,33.77
2023-05-18T06:04:42.392Z,33.75
2023-05-18T06:05:46.284Z,33.85
2023-05-18T06:06:51.634Z,33.78
2023-05-18T06:07:56.324Z,33.18
2023-05-18T06:08:59.950Z,32.33
2023-05-18T06:10:02.986Z,32.49
2023-05-18T06:11:07.090Z,32.40
2023-05-18T06:12:11.829Z,32.69
2023-05-18T06:13:15.706Z,32.54
2023-05-18T06:14:25.227Z,31.93
2023-05-18T06:15:32.086Z,32.25
2023-05-18T06:16:35.890Z,31.72
2023-05-18T06:17:40.393Z,31.07
2023-05-18T06:18:44.040Z,30.74
2023-05-18T06:19:47.162Z,30.24
2023-05-18T06:20:51.032Z,30.69
2023-05-18T06:21:56.457Z,30.47
2023-05-18T06:23:02.115Z,30.90
2023-05-18T06:24:20.552Z,30.56
2023-05-18T06:25:47.855Z,30.13
2023-05-18T06:27:09.790Z,29.64
2023-05-18T06:28:16.590Z,29.07
2023-05-18T06:29:26.116Z,29.14
2023-05-18T06:30:49.032Z,28.57
2023-05-18T06:31:58.157Z,28.39
2023-05-18T06:33:31.826Z,28.13
2023-05-18T06:34:35.507Z,27.80
2023-05-18T06:35:38.881Z,27.39
2023-05-18T06:36:42.114Z,27.11
2023-05-18T06:37:47.093Z,27.00
2023-05-18T06:38:51.004Z,27.42
2023-05-18T06:39:54.180Z,27.89
2023-05-18T06:40:57.284Z,28.04
2023-05-18T06:42:00.744Z,28.01
2023-05-18T06:43:09.346Z,28.40
2023-05-18T06:44:23.845Z,28.03
2023-05-18T06:45:56.847Z,28.82
2023-05-18T06:47:10.648Z,28.84
2023-05-18T06:48:14.564Z,28.40
2023-05-18T06:49:18.287Z,27.97
2023-05-18T06:50:22.329Z,27.94
2023-05-18T06:51:26.023Z,27.14
2023-05-18T06:52:31.905Z,26.70
2023-05-18T06:53:35.632Z,26.94
2023-05-18T06:54:39.349Z,26.52
2023-05-18T06:55:42.953Z,26.83
2023-05-18T06:56:48.122Z,26.92
2023-05-18T06:57:53.901Z,26.34
2023-05-18T06:58:58.928Z,25.68
2023-05-18T07:00:08.471Z,25.81
2023-05-18T07:01:12.428Z,26.08
2023-05-18T07:02:15.515Z,25.67
2023-05-18T07:03:19.389Z,24.98
2023-05-18T07:04:23.175Z,25.19
2023-05-18T07:05:26.351Z,25.29
2023-05-18T07:06:30.027Z,25.14
2023-05-18T07:07:33.418Z,25.95
2023-05-18T07:08:39.926Z,25.83
2023-05-18T07:09:46.669Z,25.33
2023-05-18T07:10:50.420Z,25.51
2023-05-18T07:11:53.792Z,24.49
2023-05-18T07:12:57.110Z,23.32
2023-05-18T07:14:00.667Z,23.26
2023-05-18T07:15:04.959Z,23.66
2023-05-18T07:16:08.592Z,23.90
2023-05-18T07:17:11.669Z,24.33
2023-05-18T07:18:15.138Z,23.93
2023-05-18T07:19:18.865Z,25.20
2023-05-18T07:20:24.957Z,25.66
2023-05-18T07:21:30.236Z,25.18
2023-05-18T07:22:34.927Z,24.52
2023-05-18T07:23:38.737Z,24.38
2023-05-18T07:24:42.017Z,25.01
2023-05-18T07:25:45.227Z,24.98
2023-05-18T07:26:48.875Z,24.52
2023-05-18T07:27:53.968Z,24.25
2023-05-18T07:28:57.608Z,24.99
2023-05-18T07:30:00.975Z,23.59
2023-05-18T07:31:04.436Z,24.52
2023-05-18T07:32:08.077Z,24.95
2023-05-18T07:33:11.962Z,24.08
2023-05-18T07:34:15.388Z,23.77
2023-05-18T07:35:20.750Z,23.71
2023-05-18T07:36:25.158Z,23.09
2023-05-18T07:37:28.464Z,22.82
2023-05-18T07:38:31.767Z,24.03
2023-05-18T07:39:35.196Z,24.77
2023-05-18T07:40:38.143Z,25.85
2023-05-18T07:41:41.268Z,25.73
2023-05-18T07:42:44.590Z,25.17
2023-05-18T07:43:47.389Z,24.49
2023-05-18T07:44:50.848Z,23.63
2023-05-18T07:45:53.936Z,23.08
2023-05-18T07:46:57.615Z,23.25
2023-05-18T07:48:02.200Z,24.02
2023-05-18T07:49:05.453Z,23.28
2023-05-18T07:50:08.992Z,22.93
2023-05-18T07:51:13.102Z,22.54
2023-05-18T07:52:16.709Z,22.64
2023-05-18T07:53:20.510Z,23.54
2023-05-18T07:54:24.284Z,23.22
2023-05-18T07:55:27.777Z,23.21
2023-05-18T07:56:31.567Z,23.80
2023-05-18T07:57:35.965Z,23.38
2023-05-18T07:58:39.489Z,23.58
2023-05-18T07:59:43.171Z,22.71
2023-05-18T08:00:46.717Z,22.46
2023-05-18T08:01:50.356Z,23.45
2023-05-18T08:02:53.803Z,23.13
2023-05-18T08:03:57.784Z,23.44
2023-05-18T08:05:01.315Z,22.52
2023-05-18T08:06:04.619Z,21.92
2023-05-18T08:07:07.976Z,20.92
2023-05-18T08:08:12.355Z,21.08
2023-05-18T08:09:16.041Z,21.39
2023-05-18T08:10:19.397Z,21.29
2023-05-18T08:11:22.698Z,20.62
2023-05-18T08:12:25.792Z,21.03
2023-05-18T08:13:29.341Z,21.99
2023-05-18T08:14:33.584Z,22.27
2023-05-18T08:15:38.060Z,21.13
2023-05-18T08:16:42.021Z,20.50
2023-05-18T08:17:45.294Z,19.11
2023-05-18T08:18:48.497Z,19.95
2023-05-18T08:19:55.033Z,20.62
2023-05-18T08:20:58.546Z,19.99
2023-05-18T08:22:02.498Z,20.94
2023-05-18T08:23:05.764Z,21.79
2023-05-18T08:24:09.950Z,22.20
2023-05-18T08:25:13.338Z,22.02
2023-05-18T08:26:16.436Z,22.82
2023-05-18T08:27:20.975Z,22.78
2023-05-18T08:28:24.393Z,22.66
2023-05-18T08:29:28.109Z,21.58
2023-05-18T08:30:31.340Z,20.66
2023-05-18T08:31:35.132Z,21.48
2023-05-18T08:32:38.617Z,21.31
2023-05-18T08:33:42.297Z,21.09
2023-05-18T08:34:45.203Z,20.13
2023-05-18T08:35:48.755Z,19.25
2023-05-18T08:36:53.373Z,19.25
2023-05-18T08:37:57.355Z,18.22
2023-05-18T08:39:01.399Z,18.07
2023-05-18T08:40:09.046Z,18.54
2023-05-18T08:41:24.347Z,19.29
2023-05-18T08:42:49.320Z,19.47
2023-05-18T08:43:55.605Z,18.45
2023-05-18T08:45:15.590Z,17.58
2023-05-18T08:46:22.933Z,16.77
2023-05-18T08:47:27.180Z,16.78
2023-05-18T08:48:31.843Z,17.35
2023-05-18T08:49:35.408Z,16.96
2023-05-18T08:50:38.891Z,17.49
2023-05-18T08:51:42.278Z,17.59
2023-05-18T08:52:48.974Z,16.49
2023-05-18T08:53:54.741Z,16.44
2023-05-18T08:54:58.312Z,15.63
2023-05-18T08:56:02.392Z,15.36
2023-05-18T08:57:08.748Z,14.86
2023-05-18T08:58:12.380Z,15.39
2023-05-18T08:59:20.949Z,15.02
2023-05-18T09:00:27.484Z,14.96
2023-05-18T09:01:32.124Z,14.76
2023-05-18T09:02:35.678Z,14.33
2023-05-18T09:03:39.531Z,14.26
2023-05-18T09:04:46.201Z,15.07
2023-05-18T09:05:50.393Z,15.78
2023-05-18T09:06:55.329Z,16.45
2023-05-18T09:07:59.087Z,15.64
2023-05-18T09:09:05.474Z,15.84
2023-05-18T09:10:11.185Z,15.79
2023-05-18T09:11:15.318Z,16.51
2023-05-18T09:12:19.040Z,16.36
2023-05-18T09:13:22.811Z,16.90
2023-05-18T09:14:27.661Z,16.83
2023-05-18T09:15:31.323Z,18.77
2023-05-18T09:16:34.831Z,17.57
2023-05-18T09:17:38.476Z,16.91
2023-05-18T09:18:42.144Z,16.07
2023-05-18T09:19:45.765Z,16.15
2023-05-18T09:20:48.974Z,15.31
2023-05-18T09:21:52.269Z,14.88
2023-05-18T09:22:55.439Z,14.28
2023-05-18T09:23:58.508Z,14.05
2023-05-18T09:25:01.874Z,13.82
2023-05-18T09:26:06.448Z,14.49
2023-05-18T09:27:09.813Z,15.56
2023-05-18T09:28:15.675Z,15.81
2023-05-18T09:29:22.382Z,16.53
2023-05-18T09:30:26.014Z,15.74
2023-05-18T09:31:31.166Z,14.93
2023-05-18T09:32:37.226Z,14.67
2023-05-18T09:33:41.699Z,14.07
2023-05-18T09:34:46.059Z,13.78
2023-05-18T09:35:50.508Z,13.43
2023-05-18T09:36:54.308Z,13.06
2023-05-18T09:37:58.497Z,12.74
2023-05-18T09:39:02.447Z,12.73
2023-05-18T09:40:07.180Z,12.68
2023-05-18T09:41:19.826Z,12.21
2023-05-18T09:42:24.208Z,12.16
2023-05-18T09:43:27.861Z,12.11
2023-05-18T09:44:37.394Z,12.93
2023-05-18T09:45:45.266Z,12.53
2023-05-18T09:46:48.475Z,12.44
2023-05-18T09:47:52.468Z,13.33
2023-05-18T09:48:56.399Z,13.44
2023-05-18T09:49:59.685Z,13.53
2023-05-18T09:51:02.993Z,12.76
2023-05-18T09:52:10.057Z,14.21
2023-05-18T09:53:14.641Z,13.83
2023-05-18T09:54:17.847Z,13.46
2023-05-18T09:55:21.692Z,13.95
2023-05-18T09:56:25.973Z,13.17
2023-05-18T09:57:29.536Z,12.88
2023-05-18T09:58:34.977Z,11.83
2023-05-18T09:59:38.035Z,13.13
2023-05-18T10:00:45.270Z,12.62
2023-05-18T10:02:01.817Z,12.97
2023-05-18T10:03:04.979Z,12.76
2023-05-18T10:04:08.306Z,12.74
2023-05-18T10:05:24.804Z,13.51
2023-05-18T10:06:29.622Z,13.81
2023-05-18T10:07:35.554Z,13.28
2023-05-18T10:08:38.862Z,12.24
2023-05-18T10:09:42.998Z,12.39
2023-05-18T10:10:48.226Z,12.26
2023-05-18T10:11:51.958Z,12.05
2023-05-18T10:12:56.617Z,11.64
2023-05-18T10:13:59.524Z,11.56
2023-05-18T10:15:02.634Z,11.26
2023-05-18T10:16:08.252Z,11.28
2023-05-18T10:17:16.753Z,11.23
2023-05-18T10:18:30.723Z,10.88
2023-05-18T10:19:36.042Z,12.22
2023-05-18T10:20:39.454Z,12.17
2023-05-18T10:21:42.528Z,12.37
2023-05-18T10:22:49.495Z,13.12
2023-05-18T10:23:53.398Z,13.23
2023-05-18T10:24:57.513Z,13.36
2023-05-18T10:26:00.836Z,13.26
2023-05-18T10:27:08.101Z,12.92
2023-05-18T10:28:11.152Z,12.56
2023-05-18T10:29:14.608Z,12.44
2023-05-18T10:30:20.757Z,12.51
2023-05-18T10:31:24.105Z,12.00
2023-05-18T10:32:27.521Z,12.17
2023-05-18T10:33:31.624Z,11.13
2023-05-18T10:34:34.828Z,11.16
2023-05-18T10:35:39.501Z,11.39
2023-05-18T10:36:43.717Z,11.59
2023-05-18T10:37:50.685Z,11.20
2023-05-18T10:38:54.061Z,11.51
2023-05-18T10:39:58.204Z,11.12
2023-05-18T10:41:20.012Z,11.40
2023-05-18T10:42:23.913Z,12.33
2023-05-18T10:43:28.539Z,12.94
2023-05-18T10:44:31.774Z,13.76
2023-05-18T10:45:35.471Z,13.28
2023-05-18T10:46:38.795Z,13.83
2023-05-18T10:47:43.141Z,13.38
2023-05-18T10:48:48.020Z,12.97
2023-05-18T10:49:51.931Z,12.73
2023-05-18T10:50:56.626Z,12.24
2023-05-18T10:51:59.944Z,12.20
2023-05-18T10:53:02.935Z,12.10
2023-05-18T10:54:14.160Z,11.60
2023-05-18T10:55:18.045Z,12.14
2023-05-18T10:56:21.410Z,11.96
2023-05-18T10:57:24.489Z,12.21
2023-05-18T10:58:28.482Z,11.98
2023-05-18T10:59:31.601Z,10.99
2023-05-18T11:00:35.484Z,11.56
2023-05-18T11:01:39.169Z,12.01
2023-05-18T11:02:43.549Z,11.96
2023-05-18T11:03:46.969Z,11.51
2023-05-18T11:04:51.231Z,11.47
2023-05-18T11:06:13.386Z,11.57
2023-05-18T11:07:17.278Z,11.05
2023-05-18T11:08:30.145Z,10.55
2023-05-18T11:09:33.242Z,11.07
2023-05-18T11:10:36.881Z,10.95
2023-05-18T11:11:56.894Z,11.07
2023-05-18T11:13:02.735Z,12.22
2023-05-18T11:14:05.913Z,13.53
2023-05-18T11:15:09.926Z,14.52
2023-05-18T11:16:13.232Z,16.19
2023-05-18T11:17:20.540Z,15.39
2023-05-18T11:18:35.747Z,14.87
2023-05-18T11:19:38.706Z,14.15
2023-05-18T11:20:41.618Z,13.71
2023-05-18T11:21:48.152Z,13.66
2023-05-18T11:22:59.919Z,13.33
2023-05-18T11:24:22.687Z,13.14
2023-05-18T11:25:29.143Z,12.45
2023-05-18T11:26:32.430Z,12.77
2023-05-18T11:27:35.651Z,13.42
2023-05-18T11:28:44.529Z,13.69
2023-05-18T11:29:57.818Z,12.94
2023-05-18T11:31:11.137Z,13.13
2023-05-18T11:32:33.632Z,13.55
2023-05-18T11:33:39.497Z,13.41
2023-05-18T11:34:46.402Z,13.70
2023-05-18T11:36:08.167Z,12.88
2023-05-18T11:37:13.028Z,12.97
2023-05-18T11:38:16.700Z,13.25
2023-05-18T11:39:26.234Z,13.14
2023-05-18T11:40:51.353Z,13.51
2023-05-18T11:42:10.545Z,14.10
2023-05-18T11:43:26.003Z,16.21
2023-05-18T11:44:29.898Z,16.36
2023-05-18T11:45:33.583Z,16.64
2023-05-18T11:46:37.647Z,17.41
2023-05-18T11:47:41.995Z,15.96
2023-05-18T11:48:45.992Z,16.32
2023-05-18T11:49:49.435Z,16.09
2023-05-18T11:50:56.378Z,16.05
2023-05-18T11:52:14.891Z,16.16
2023-05-18T11:53:18.506Z,15.69
2023-05-18T11:54:25.165Z,15.88
2023-05-18T11:55:39.468Z,16.06
2023-05-18T11:56:42.903Z,17.11
2023-05-18T11:57:49.152Z,17.19
2023-05-18T11:59:15.632Z,17.67
2023-05-18T12:00:19.525Z,17.18
2023-05-18T12:01:24.154Z,16.77
2023-05-18T12:02:28.632Z,16.67
2023-05-18T12:03:32.023Z,16.43
2023-05-18T12:04:35.095Z,17.00
2023-05-18T12:05:38.600Z,15.98
2023-05-18T12:06:41.764Z,15.93
2023-05-18T12:07:45.698Z,17.12
2023-05-18T12:08:49.024Z,17.47
2023-05-18T12:09:52.698Z,17.94
2023-05-18T12:10:56.470Z,18.62
2023-05-18T12:11:59.644Z,19.30
2023-05-18T12:13:03.163Z,19.06
2023-05-18T12:14:06.523Z,18.59
2023-05-18T12:15:10.858Z,18.88
2023-05-18T12:16:14.865Z,20.46
2023-05-18T12:17:18.482Z,21.81
2023-05-18T12:18:22.018Z,22.74
2023-05-18T12:19:25.781Z,23.05
2023-05-18T12:20:30.230Z,22.88
2023-05-18T12:21:35.957Z,22.88
2023-05-18T12:22:42.821Z,22.66
2023-05-18T12:23:46.093Z,22.64
2023-05-18T12:24:52.974Z,22.08
2023-05-18T12:25:56.773Z,23.11
2023-05-18T12:27:07.301Z,23.05
2023-05-18T12:28:10.953Z,23.09
2023-05-18T12:29:21.551Z,22.85
2023-05-18T12:30:25.461Z,22.66
2023-05-18T12:31:28.988Z,22.60
2023-05-18T12:32:32.423Z,22.58
2023-05-18T12:33:35.938Z,22.48
2023-05-18T12:34:39.794Z,21.89
2023-05-18T12:35:43.233Z,22.06
2023-05-18T12:36:56.961Z,21.92
2023-05-18T12:38:03.421Z,21.40
2023-05-18T12:39:07.536Z,21.32
2023-05-18T12:40:12.313Z,21.83
2023-05-18T12:41:28.853Z,21.57
2023-05-18T12:42:32.475Z,21.10
2023-05-18T12:43:38.494Z,21.33
2023-05-18T12:44:45.915Z,20.88
2023-05-18T12:45:49.307Z,21.64
2023-05-18T12:46:54.998Z,21.74
2023-05-18T12:48:04.478Z,21.22
2023-05-18T12:49:07.508Z,22.64
2023-05-18T12:50:11.617Z,21.94
2023-05-18T12:51:20.893Z,21.86
2023-05-18T12:52:23.732Z,21.87
2023-05-18T12:53:27.529Z,22.97
2023-05-18T12:54:31.064Z,22.61
2023-05-18T12:55:35.444Z,25.13
2023-05-18T12:57:02.382Z,26.06
2023-05-18T12:58:25.342Z,25.53
2023-05-18T12:59:28.670Z,25.41
2023-05-18T13:00:38.447Z,26.72
2023-05-18T13:01:45.442Z,26.87
2023-05-18T13:02:49.025Z,27.25
2023-05-18T13:04:01.447Z,26.81
2023-05-18T13:05:06.506Z,27.40
2023-05-18T13:06:10.365Z,28.36
2023-05-18T13:07:13.367Z,28.46
2023-05-18T13:08:19.697Z,28.29
2023-05-18T13:09:23.206Z,28.27
2023-05-18T13:10:26.421Z,28.11
2023-05-18T13:11:30.902Z,27.79
2023-05-18T13:12:44.113Z,27.56
2023-05-18T13:14:04.007Z,26.68
2023-05-18T13:15:12.191Z,26.53
2023-05-18T13:16:18.953Z,26.56
2023-05-18T13:17:25.358Z,26.23
2023-05-18T13:18:29.261Z,26.79
2023-05-18T13:19:33.448Z,26.78
2023-05-18T13:20:40.763Z,27.20
2023-05-18T13:21:43.707Z,26.20
2023-05-18T13:22:46.463Z,26.15
2023-05-18T13:23:49.724Z,26.13
2023-05-18T13:24:53.560Z,25.79
2023-05-18T13:25:58.821Z,24.44
2023-05-18T13:27:03.378Z,24.53
2023-05-18T13:28:06.956Z,23.34
2023-05-18T13:29:10.277Z,23.63
2023-05-18T13:30:14.326Z,22.91
2023-05-18T13:31:19.394Z,22.77
2023-05-18T13:32:22.960Z,23.27
2023-05-18T13:33:26.327Z,23.30
2023-05-18T13:34:29.925Z,23.56
2023-05-18T13:35:33.434Z,23.66
2023-05-18T13:36:37.678Z,23.65
2023-05-18T13:37:42.406Z,24.08
2023-05-18T13:38:45.909Z,23.93
2023-05-18T13:39:49.689Z,24.50
2023-05-18T13:40:53.244Z,24.20
2023-05-18T13:41:57.040Z,23.66
2023-05-18T13:43:00.150Z,23.81
2023-05-18T13:44:03.857Z,24.52
2023-05-18T13:45:08.053Z,24.24
2023-05-18T13:46:11.353Z,24.02
2023-05-18T13:47:14.440Z,24.30
2023-05-18T13:48:17.389Z,24.41
2023-05-18T13:49:20.958Z,24.67
2023-05-18T13:50:24.635Z,24.45
2023-05-18T13:51:27.887Z,23.75
2023-05-18T13:52:30.846Z,24.26
2023-05-18T13:53:33.780Z,23.61
2023-05-18T13:54:36.697Z,24.17
2023-05-18T13:55:40.318Z,23.90
2023-05-18T13:56:43.617Z,23.46
2023-05-18T13:57:47.723Z,23.24
2023-05-18T13:58:50.985Z,23.48
2023-05-18T13:59:54.160Z,23.27
2023-05-18T14:00:57.042Z,23.92
2023-05-18T14:02:00.254Z,24.82
2023-05-18T14:03:03.604Z,24.79
2023-05-18T14:04:07.384Z,24.80